Time;durP1;ratioP1;P1;durP2;ratioP2;P2;SDS_P1;SDS_P2;PMS_P1;PMS_P2;Temp;Humidity;BMP_temperature;BMP_pressure;BME280_temperature;BME280_humidity;BME280_pressure;Samples;Min_cycle;Max_cycle;Signal;HPM_P1;HPM_P2
2022/05/17 00:00:47;;;;;;;;;9.75;6.75;;;;;23.02;46.81;101242.50;5035035;28;45479;-49
2022/05/17 00:03:13;;;;;;;;;7.00;5.60;;;;;23.19;46.66;101261.78;5035138;28;45291;-47
2022/05/17 00:05:39;;;;;;;;;4.80;3.80;;;;;23.11;47.19;101254.78;5034123;28;46027;-50
2022/05/17 00:08:04;;;;;;;;;6.00;5.00;;;;;23.07;47.57;101258.44;5000641;28;46921;-51
2022/05/17 00:10:30;;;;;;;;;4.50;4.50;;;;;23.11;47.47;101262.38;5033809;28;45307;-46
2022/05/17 00:12:56;;;;;;;;;5.75;5.75;;;;;23.03;47.47;101255.38;5035243;28;45306;-50
2022/05/17 00:15:22;;;;;;;;;7.20;6.00;;;;;23.02;47.96;101267.69;5034081;28;45642;-50
2022/05/17 00:17:48;;;;;;;;;5.00;5.00;;;;;22.96;48.07;101257.63;5034943;28;46247;-47
2022/05/17 00:20:13;;;;;;;;;6.50;5.00;;;;;22.83;48.00;101243.13;5033614;28;45428;-49
2022/05/17 00:22:39;;;;;;;;;5.00;5.00;;;;;22.91;48.08;101254.84;5016890;28;45410;-50
2022/05/17 00:25:05;;;;;;;;;7.00;5.00;;;;;22.84;48.23;101253.19;5017512;28;45477;-47
2022/05/17 00:27:31;;;;;;;;;7.80;6.80;;;;;22.82;48.62;101252.63;5033725;28;46490;-48
2022/05/17 00:29:57;;;;;;;;;8.25;6.50;;;;;22.77;48.48;101252.63;5034806;28;45314;-48
2022/05/17 00:32:22;;;;;;;;;6.25;3.50;;;;;22.80;48.53;101252.09;5034769;28;45229;-47
2022/05/17 00:34:48;;;;;;;;;5.25;5.25;;;;;22.78;48.54;101257.09;5033578;28;45583;-51
2022/05/17 00:37:14;;;;;;;;;7.25;7.25;;;;;22.58;48.82;101225.25;5034767;28;46873;-50
2022/05/17 00:39:39;;;;;;;;;6.00;6.00;;;;;22.70;48.98;101246.50;5033508;28;45335;-46
2022/05/17 00:42:05;;;;;;;;;4.50;4.50;;;;;22.68;49.18;101254.34;5033739;28;45288;-49
2022/05/17 00:44:43;;;;;;;;;8.00;7.60;;;;;22.45;49.43;101214.59;5033669;28;45314;-51
2022/05/17 00:47:29;;;;;;;;;9.00;6.00;;;;;22.57;49.44;101248.75;5038186;28;45819;-47
2022/05/17 00:50:16;;;;;;;;;6.00;4.40;;;;;22.53;49.97;101247.66;5037743;28;45228;-49
2022/05/17 00:52:51;;;;;;;;;5.60;5.20;;;;;22.41;50.06;101224.69;5038338;28;45491;-49
2022/05/17 00:55:30;;;;;;;;;4.80;4.60;;;;;22.39;49.99;101219.38;5038515;28;45409;-54
2022/05/17 00:58:15;;;;;;;;;7.00;6.60;;;;;22.49;50.01;101243.69;5038002;28;45779;-48
2022/05/17 01:00:48;;;;;;;;;7.00;4.00;;;;;22.50;50.16;101242.56;5038162;28;45326;-47
2022/05/17 01:03:14;;;;;;;;;6.20;5.80;;;;;22.48;50.32;101244.81;5053121;28;45468;-51
2022/05/17 01:05:42;;;;;;;;;7.60;5.20;;;;;22.30;50.44;101212.69;5053873;28;45405;-49
2022/05/17 01:08:08;;;;;;;;;4.20;4.20;;;;;22.44;50.51;101235.31;5053218;28;48812;-49
2022/05/17 01:10:33;;;;;;;;;6.80;6.00;;;;;22.47;50.32;101235.56;5036962;28;45527;-49
2022/05/17 01:15:43;;;;;;;;;7.40;4.00;;;;;22.42;50.53;101237.56;5065931;28;45822;-50
2022/05/17 01:18:09;;;;;;;;;5.75;5.50;;;;;22.39;50.75;101230.56;5038139;28;46045;-45
2022/05/17 01:20:35;;;;;;;;;7.00;5.20;;;;;22.33;51.08;101231.69;5037622;28;45499;-50
2022/05/17 01:23:00;;;;;;;;;4.50;4.50;;;;;22.36;51.09;101236.69;5038287;28;45424;-49
2022/05/17 01:25:27;;;;;;;;;4.00;4.00;;;;;22.23;51.08;101234.47;5037909;28;45589;-49
2022/05/17 01:28:00;;;;;;;;;6.00;6.00;;;;;22.26;50.81;101236.72;5070149;28;45946;-49
2022/05/17 01:30:27;;;;;;;;;7.40;4.80;;;;;22.25;51.29;101233.06;5035666;28;45320;-49
2022/05/17 01:32:52;;;;;;;;;6.20;6.20;;;;;22.17;51.20;101228.88;5037703;28;45347;-47
2022/05/17 01:35:18;;;;;;;;;6.75;6.75;;;;;22.19;51.51;101231.38;5038194;28;45608;-48
2022/05/17 01:37:44;;;;;;;;;5.50;5.50;;;;;22.19;51.52;101235.03;5036288;28;47325;-50
2022/05/17 01:40:10;;;;;;;;;7.80;7.80;;;;;22.18;51.46;101230.56;5053215;28;45378;-50
2022/05/17 01:42:36;;;;;;;;;5.20;5.20;;;;;22.13;51.54;101229.69;5036145;28;45284;-48
2022/05/17 01:45:03;;;;;;;;;7.00;6.00;;;;;22.11;51.81;101240.34;5038049;28;45480;-49
2022/05/17 01:47:29;;;;;;;;;7.00;6.00;;;;;22.09;51.65;101235.00;5069817;28;48467;-47
2022/05/17 01:49:54;;;;;;;;;5.20;4.00;;;;;22.04;51.71;101235.03;5037617;28;45836;-49
2022/05/17 01:52:20;;;;;;;;;9.00;6.50;;;;;21.99;51.87;101237.81;5036263;28;45446;-51
2022/05/17 01:54:46;;;;;;;;;6.00;6.00;;;;;22.00;51.88;101234.75;5037605;28;46059;-49
2022/05/17 01:57:11;;;;;;;;;4.25;4.25;;;;;22.02;51.49;101232.50;5037097;28;46238;-48
2022/05/17 01:59:37;;;;;;;;;4.00;4.00;;;;;21.69;51.35;101184.41;5037454;28;45393;-52
2022/05/17 02:02:03;;;;;;;;;3.00;3.00;;;;;21.92;51.45;101240.88;5004813;28;45577;-46
2022/05/17 02:04:28;;;;;;;;;5.00;5.00;;;;;21.93;51.41;101260.16;5035217;28;45593;-48
2022/05/17 02:06:54;;;;;;;;;5.00;5.00;;;;;21.97;50.85;101262.41;5029188;28;46786;-47
2022/05/17 02:09:19;;;;;;;;;5.50;5.50;;;;;21.98;50.81;101250.94;5037268;28;45312;-46
2022/05/17 02:11:45;;;;;;;;;4.50;4.50;;;;;22.03;50.82;101259.34;5034245;28;45409;-50
2022/05/17 02:14:10;;;;;;;;;5.00;5.00;;;;;21.98;50.45;101248.13;5037385;28;45264;-52
2022/05/17 02:16:36;;;;;;;;;7.75;5.00;;;;;22.06;50.64;101257.94;5048751;28;47556;-48
2022/05/17 02:19:03;;;;;;;;;6.00;4.20;;;;;22.05;50.13;101248.72;5036930;28;45434;-50
2022/05/17 02:21:28;;;;;;;;;5.00;4.00;;;;;21.90;50.03;101216.03;5034672;28;45377;-48
2022/05/17 02:23:54;;;;;;;;;5.50;5.50;;;;;22.11;49.86;101265.50;5052383;28;45422;-49
2022/05/17 02:26:19;;;;;;;;;4.50;4.50;;;;;21.90;50.04;101248.69;5069137;28;47873;-49
2022/05/17 02:28:45;;;;;;;;;7.00;5.00;;;;;21.99;49.88;101262.97;5018591;28;45387;-48
2022/05/17 02:31:12;;;;;;;;;5.00;3.50;;;;;22.00;49.70;101256.25;5036970;28;45430;-47
2022/05/17 02:33:38;;;;;;;;;6.00;6.00;;;;;21.99;49.79;101263.78;5036749;28;45294;-47
2022/05/17 02:36:03;;;;;;;;;6.00;5.00;;;;;22.06;49.72;101261.59;5036384;28;46419;-49
2022/05/17 02:38:29;;;;;;;;;5.25;5.25;;;;;21.89;49.45;101231.06;5035513;28;45457;-50
2022/05/17 02:40:54;;;;;;;;;7.00;4.75;;;;;22.10;49.29;101250.69;5034994;28;45297;-48
2022/05/17 02:43:20;;;;;;;;;4.00;4.00;;;;;22.13;49.17;101257.66;5036857;28;45552;-47
2022/05/17 02:45:45;;;;;;;;;3.00;3.00;;;;;22.12;49.11;101273.59;5036171;28;45593;-49
2022/05/17 02:48:11;;;;;;;;;3.00;3.00;;;;;22.11;49.11;101257.09;5036373;28;45367;-51
2022/05/17 02:50:36;;;;;;;;;3.50;3.00;;;;;22.10;49.08;101255.44;5036715;28;45240;-52
2022/05/17 02:53:02;;;;;;;;;4.00;4.00;;;;;22.06;49.13;101252.34;5035162;28;45349;-47
2022/05/17 02:55:28;;;;;;;;;3.75;3.50;;;;;21.96;49.35;101258.75;5036283;28;45801;-46
2022/05/17 02:57:53;;;;;;;;;2.50;2.00;;;;;21.91;49.58;101258.75;5035721;28;45504;-48
2022/05/17 03:00:19;;;;;;;;;2.50;2.50;;;;;21.89;49.68;101244.22;5036458;28;45394;-47
2022/05/17 03:02:44;;;;;;;;;3.00;3.00;;;;;22.01;49.33;101256.00;5036267;28;45425;-46
2022/05/17 03:05:11;;;;;;;;;3.75;3.75;;;;;22.05;49.35;101257.09;5035981;28;46864;-49
2022/05/17 03:07:36;;;;;;;;;3.60;3.60;;;;;22.07;49.15;101242.84;5035469;28;45371;-47
2022/05/17 03:10:02;;;;;;;;;4.00;4.00;;;;;22.07;49.43;101245.63;5036221;28;45439;-48
2022/05/17 03:12:28;;;;;;;;;5.50;4.50;;;;;22.11;49.10;101248.72;5036392;28;45215;-48
2022/05/17 03:14:53;;;;;;;;;3.25;3.25;;;;;22.09;49.19;101250.97;5034558;28;45339;-48
2022/05/17 03:17:19;;;;;;;;;5.00;5.00;;;;;22.06;49.15;101253.22;5035816;28;45215;-48
2022/05/17 03:19:45;;;;;;;;;5.00;3.00;;;;;22.05;49.46;101247.88;5034740;28;45227;-48
2022/05/17 03:22:10;;;;;;;;;3.25;3.25;;;;;22.04;49.61;101254.59;5034854;28;45324;-48
2022/05/17 03:24:36;;;;;;;;;4.25;4.25;;;;;21.99;49.82;101251.78;5035898;28;46058;-49
2022/05/17 03:27:02;;;;;;;;;4.00;4.00;;;;;21.93;50.17;101254.56;5035899;28;45620;-50
2022/05/17 03:29:28;;;;;;;;;5.50;4.25;;;;;21.86;50.29;101245.63;5034622;28;45362;-49
2022/05/17 03:31:53;;;;;;;;;5.00;4.00;;;;;21.88;50.67;101254.53;5036065;28;45495;-49
2022/05/17 03:34:19;;;;;;;;;6.00;4.50;;;;;21.80;50.97;101250.38;5035265;28;46798;-50
2022/05/17 03:36:44;;;;;;;;;6.00;6.00;;;;;21.80;50.74;101255.09;5002913;28;45457;-47
2022/05/17 03:39:10;;;;;;;;;4.25;4.25;;;;;21.45;50.73;101187.66;5030061;28;45426;-45
2022/05/17 03:41:36;;;;;;;;;5.75;4.00;;;;;21.80;50.64;101247.56;5035790;28;45484;-48
2022/05/17 03:44:02;;;;;;;;;4.25;4.25;;;;;21.67;50.46;101225.72;5017509;28;47924;-50
2022/05/17 03:46:27;;;;;;;;;5.25;3.75;;;;;21.78;50.73;101235.00;5035507;28;45425;-46
2022/05/17 03:48:53;;;;;;;;;3.00;3.00;;;;;21.66;50.76;101218.44;5034365;28;45429;-48
2022/05/17 03:51:19;;;;;;;;;5.25;4.00;;;;;21.78;50.71;101246.97;5034515;28;45644;-51
2022/05/17 03:53:45;;;;;;;;;5.20;5.20;;;;;21.80;50.58;101255.94;5034990;28;47157;-47
2022/05/17 03:56:11;;;;;;;;;4.25;4.25;;;;;21.75;50.78;101253.13;5035311;28;45245;-48
2022/05/17 03:58:37;;;;;;;;;6.50;3.75;;;;;21.08;50.92;101164.38;5034045;28;45200;-48
2022/05/17 04:01:03;;;;;;;;;5.00;4.20;;;;;21.46;50.87;101222.84;5035559;28;45283;-47
2022/05/17 04:03:28;;;;;;;;;4.75;3.75;;;;;21.68;50.97;101252.53;5050453;28;46057;-49
2022/05/17 04:05:54;;;;;;;;;4.75;4.00;;;;;21.56;51.16;101257.50;5034472;28;45494;-50
2022/05/17 04:08:19;;;;;;;;;4.50;4.50;;;;;21.52;51.59;101251.63;5067868;28;45346;-46
2022/05/17 04:10:45;;;;;;;;;5.75;4.75;;;;;21.38;51.36;101227.03;5035802;28;45489;-49
2022/05/17 04:13:10;;;;;;;;;4.50;4.50;;;;;21.61;51.30;101261.16;5035665;28;45787;-50
2022/05/17 04:15:36;;;;;;;;;6.75;5.50;;;;;21.62;51.37;101257.25;5035459;28;45465;-48
2022/05/17 04:18:02;;;;;;;;;8.00;8.00;;;;;21.65;51.30;101259.50;5035802;28;45339;-49
2022/05/17 04:20:28;;;;;;;;;4.60;4.60;;;;;21.66;51.50;101261.19;5037081;28;45237;-50
2022/05/17 04:22:54;;;;;;;;;6.00;6.00;;;;;21.68;51.51;101255.31;5071173;28;45527;-48
2022/05/17 04:25:21;;;;;;;;;4.75;4.75;;;;;21.65;51.46;101253.91;5039071;28;45305;-49
2022/05/17 04:27:47;;;;;;;;;4.00;4.00;;;;;21.56;51.76;101254.72;5038972;28;45256;-48
2022/05/17 04:30:13;;;;;;;;;3.00;3.00;;;;;21.18;52.13;101219.41;5037902;28;45287;-49
2022/05/17 04:32:39;;;;;;;;;6.00;5.80;;;;;21.45;51.99;101260.25;5038430;28;45648;-55
2022/05/17 04:35:05;;;;;;;;;6.25;6.25;;;;;21.48;52.03;101270.91;5071452;28;45386;-50
2022/05/17 04:37:31;;;;;;;;;6.40;6.40;;;;;21.48;52.07;101267.25;5038454;28;45461;-52
2022/05/17 04:39:56;;;;;;;;;9.75;7.75;;;;;21.47;52.06;101272.00;5039336;28;45484;-47
2022/05/17 04:42:22;;;;;;;;;7.25;5.75;;;;;21.45;52.20;101271.44;5038690;28;46917;-51
2022/05/17 04:44:47;;;;;;;;;5.00;2.50;;;;;21.37;52.30;101249.63;5053813;27;45520;-51
2022/05/17 04:47:13;;;;;;;;;8.25;7.50;;;;;21.47;52.26;101271.16;5038646;28;45359;-49
2022/05/17 04:49:38;;;;;;;;;6.25;6.25;;;;;21.44;52.45;101272.53;5038714;28;45339;-47
2022/05/17 04:52:05;;;;;;;;;5.00;5.00;;;;;21.46;52.20;101278.69;5038453;28;45337;-48
2022/05/17 04:54:31;;;;;;;;;7.00;7.00;;;;;21.46;52.56;101278.69;5037945;28;45280;-48
2022/05/17 04:56:56;;;;;;;;;7.25;7.25;;;;;21.47;52.69;101282.31;5038511;28;45588;-50
2022/05/17 04:59:22;;;;;;;;;10.50;8.75;;;;;21.37;52.54;101263.59;5038503;28;45341;-50
2022/05/17 05:01:47;;;;;;;;;10.80;9.20;;;;;21.49;52.59;101278.16;5037630;28;45339;-47
2022/05/17 05:04:13;;;;;;;;;8.75;7.50;;;;;21.33;52.75;101254.06;5037860;28;45387;-48
2022/05/17 05:06:39;;;;;;;;;6.25;6.25;;;;;21.50;52.63;101284.59;5036962;28;45362;-51
2022/05/17 05:09:05;;;;;;;;;11.75;7.50;;;;;21.51;52.56;101292.69;5037831;28;45548;-51
2022/05/17 05:11:30;;;;;;;;;10.00;7.00;;;;;20.93;52.33;101198.66;5037997;28;45413;-48
2022/05/17 05:13:55;;;;;;;;;7.00;6.75;;;;;21.56;52.74;101293.81;5037601;28;45485;-53
2022/05/17 05:16:21;;;;;;;;;8.25;8.25;;;;;21.61;52.39;101296.63;5038121;28;45355;-54
2022/05/17 05:18:47;;;;;;;;;5.00;5.00;;;;;21.62;52.33;101303.91;5037854;28;45450;-53
2022/05/17 05:21:14;;;;;;;;;9.75;8.00;;;;;21.56;52.57;101291.03;5037575;28;45338;-49
2022/05/17 05:23:41;;;;;;;;;9.40;7.20;;;;;21.66;51.99;101310.59;5036588;28;45320;-53
2022/05/17 05:26:07;;;;;;;;;8.60;6.80;;;;;21.67;52.21;101309.50;5036621;28;45453;-49
2022/05/17 05:28:33;;;;;;;;;8.00;8.00;;;;;21.67;52.02;101309.50;5037883;28;45477;-51
2022/05/17 05:30:59;;;;;;;;;6.60;6.60;;;;;21.58;52.43;101308.34;5035730;28;45858;-51
2022/05/17 05:33:24;;;;;;;;;8.20;6.80;;;;;21.42;52.21;101276.72;5037225;28;45350;-49
2022/05/17 05:35:51;;;;;;;;;8.00;6.75;;;;;21.61;52.18;101297.47;5036435;28;45456;-48
2022/05/17 05:38:16;;;;;;;;;7.00;7.00;;;;;21.67;52.15;101306.72;5036513;28;45440;-48
2022/05/17 05:40:42;;;;;;;;;7.25;7.25;;;;;21.70;52.19;101313.72;5037436;28;45358;-49
2022/05/17 05:43:08;;;;;;;;;6.00;6.00;;;;;21.72;52.38;101312.34;5036979;28;45414;-48
2022/05/17 05:45:33;;;;;;;;;7.50;7.50;;;;;21.52;52.19;101299.94;5037335;28;45311;-48
2022/05/17 05:47:59;;;;;;;;;8.75;7.25;;;;;21.53;52.52;101318.41;5036348;28;45377;-50
2022/05/17 05:50:25;;;;;;;;;12.50;12.50;;;;;21.40;52.53;101289.00;5037079;28;45376;-52
2022/05/17 05:52:51;;;;;;;;;8.25;8.25;;;;;21.42;52.54;101297.13;5037195;28;45811;-47
2022/05/17 05:55:21;;;;;;;;;7.50;6.25;;;;;21.64;52.27;101322.06;5037351;28;45404;-50
2022/05/17 05:57:47;;;;;;;;;10.60;9.00;;;;;21.72;52.52;101331.88;5036239;28;45358;-49
2022/05/17 06:00:13;;;;;;;;;7.50;7.50;;;;;21.78;52.32;101322.41;5036521;28;46450;-47
2022/05/17 06:02:39;;;;;;;;;8.60;8.60;;;;;21.66;51.97;101294.69;5069427;28;45269;-49
2022/05/17 06:05:05;;;;;;;;;11.20;10.00;;;;;21.82;51.79;101317.13;5069145;28;45834;-52
2022/05/17 06:07:31;;;;;;;;;10.00;9.60;;;;;21.89;51.84;101320.47;5036089;28;45342;-50
2022/05/17 06:09:57;;;;;;;;;8.25;8.25;;;;;21.79;52.04;101310.13;5037043;28;45632;-50
2022/05/17 06:12:22;;;;;;;;;9.25;9.25;;;;;21.91;51.90;101323.88;5036778;28;45383;-48
2022/05/17 06:14:48;;;;;;;;;8.50;8.50;;;;;21.83;51.88;101307.66;5037040;28;45263;-47
2022/05/17 06:17:13;;;;;;;;;8.25;8.00;;;;;21.93;51.42;101327.22;5036876;28;45555;-49
2022/05/17 06:19:39;;;;;;;;;9.25;8.00;;;;;21.98;51.63;101331.97;5036620;28;45449;-48
2022/05/17 06:22:04;;;;;;;;;8.75;7.75;;;;;22.03;51.02;101332.00;5036458;28;45366;-49
2022/05/17 06:24:30;;;;;;;;;8.50;8.50;;;;;21.98;50.83;101312.41;5036560;28;45358;-49
2022/05/17 06:26:55;;;;;;;;;8.00;7.25;;;;;22.09;50.73;101327.25;5037217;28;45387;-49
2022/05/17 06:29:21;;;;;;;;;11.50;11.25;;;;;22.00;50.52;101314.94;5051741;28;45522;-54
2022/05/17 06:31:47;;;;;;;;;8.50;8.50;;;;;22.11;50.81;101329.78;5037003;28;45462;-54
2022/05/17 06:34:13;;;;;;;;;7.00;7.00;;;;;22.13;50.20;101335.91;5028012;28;45545;-48
2022/05/17 06:36:40;;;;;;;;;7.40;7.40;;;;;22.14;49.49;101332.03;5035865;28;45593;-48
2022/05/17 06:39:08;;;;;;;;;5.00;5.00;;;;;22.13;48.89;101328.38;5034271;28;46760;-52
2022/05/17 06:41:34;;;;;;;;;5.60;5.60;;;;;21.99;49.12;101300.13;5034403;28;45355;-47
2022/05/17 06:44:00;;;;;;;;;7.20;7.20;;;;;22.14;48.88;101318.06;5067304;27;45784;-48
2022/05/17 06:46:25;;;;;;;;;6.25;6.25;;;;;22.21;48.60;101329.81;5035113;28;45791;-55
2022/05/17 06:48:51;;;;;;;;;4.50;4.00;;;;;22.15;48.40;101314.13;5049946;28;45483;-54
2022/05/17 06:51:16;;;;;;;;;4.00;4.00;;;;;22.20;48.46;101328.13;5036023;28;45402;-50
2022/05/17 06:53:42;;;;;;;;;5.50;4.75;;;;;22.18;47.81;101314.44;5035929;28;45426;-54
2022/05/17 06:56:08;;;;;;;;;6.20;6.00;;;;;22.16;48.16;101321.41;5036176;28;45719;-51
2022/05/17 06:58:34;;;;;;;;;4.75;4.75;;;;;22.15;47.86;101322.53;5034110;28;45642;-52
2022/05/17 07:00:59;;;;;;;;;7.50;6.00;;;;;22.21;48.05;101327.00;5036065;28;45263;-49
2022/05/17 07:03:25;;;;;;;;;5.50;5.50;;;;;22.23;47.59;101321.97;5034953;28;45291;-52
2022/05/17 07:05:51;;;;;;;;;6.00;6.00;;;;;22.21;47.07;101316.66;5034773;28;45658;-51
2022/05/17 07:08:17;;;;;;;;;5.80;5.80;;;;;22.36;47.29;101330.94;5036463;28;46568;-54
2022/05/17 07:13:26;;;;;;;;;9.80;5.00;;;;;22.42;47.28;101316.66;5020793;28;45352;-53
2022/05/17 07:15:53;;;;;;;;;7.75;6.25;;;;;22.48;46.88;101323.13;5036115;28;45324;-54
2022/05/17 07:18:22;;;;;;;;;5.80;5.80;;;;;22.11;47.00;101257.94;5036180;28;45775;-54
2022/05/17 07:20:47;;;;;;;;;6.80;6.40;;;;;22.37;46.83;101299.06;5035683;28;45425;-52
2022/05/17 07:23:13;;;;;;;;;5.00;5.00;;;;;22.52;47.43;101315.88;5034763;28;45425;-52
2022/05/17 07:25:40;;;;;;;;;6.50;6.50;;;;;22.48;46.51;101295.16;5035842;28;45600;-52
2022/05/17 07:28:07;;;;;;;;;6.60;5.40;;;;;22.65;46.00;101316.44;5035868;28;46541;-51
2022/05/17 07:30:33;;;;;;;;;10.40;6.00;;;;;22.68;46.26;101313.09;5035405;28;45377;-53
2022/05/17 07:32:58;;;;;;;;;5.25;4.00;;;;;22.63;45.96;101299.94;5017850;28;45409;-52
2022/05/17 07:35:24;;;;;;;;;6.25;6.00;;;;;22.81;45.28;101320.06;5034295;28;45602;-54
2022/05/17 07:37:49;;;;;;;;;6.50;5.25;;;;;22.85;45.57;101319.22;5022976;28;47878;-52
2022/05/17 07:40:17;;;;;;;;;4.00;3.75;;;;;22.88;45.30;101317.81;5001927;28;45457;-52
2022/05/17 07:42:42;;;;;;;;;5.20;5.20;;;;;22.93;45.04;101319.78;5014511;28;45454;-54
2022/05/17 07:45:09;;;;;;;;;3.25;3.25;;;;;22.96;43.93;101310.81;5031312;28;45715;-50
2022/05/17 07:47:34;;;;;;;;;5.40;3.60;;;;;23.04;43.32;101321.44;5030853;28;46176;-53
2022/05/17 07:50:00;;;;;;;;;3.50;3.50;;;;;23.02;41.82;101315.28;5014108;28;45369;-54
2022/05/17 07:52:26;;;;;;;;;4.00;3.00;;;;;22.89;41.16;101280.31;5015519;28;45331;-55
2022/05/17 07:54:51;;;;;;;;;4.00;3.00;;;;;23.19;40.17;101314.09;5014135;28;45327;-51
2022/05/17 07:57:17;;;;;;;;;2.25;1.75;;;;;23.24;40.00;101314.09;5030857;28;46125;-54
2022/05/17 07:59:43;;;;;;;;;2.00;2.00;;;;;23.17;39.76;101292.03;5014941;28;45291;-55
2022/05/17 08:02:09;;;;;;;;;2.00;2.00;;;;;23.36;40.62;101320.25;5027721;28;45492;-55
2022/05/17 08:04:34;;;;;;;;;4.00;4.00;;;;;23.41;40.48;101313.81;5034738;28;45589;-55
2022/05/17 08:07:00;;;;;;;;;3.75;3.75;;;;;23.34;39.96;101291.72;5035213;28;45419;-49
2022/05/17 08:09:26;;;;;;;;;2.00;2.00;;;;;23.56;40.27;101318.50;5035594;28;45346;-50
2022/05/17 08:11:52;;;;;;;;;2.60;2.60;;;;;23.63;40.29;101316.25;5033905;28;45425;-54
2022/05/17 08:14:17;;;;;;;;;4.00;3.50;;;;;23.68;39.25;101319.03;5035812;28;45282;-51
2022/05/17 08:16:43;;;;;;;;;4.00;4.00;;;;;23.64;39.23;101295.50;5035397;28;45496;-51
2022/05/17 08:19:09;;;;;;;;;5.00;3.25;;;;;23.78;38.92;101315.34;5035098;28;45353;-49
2022/05/17 08:21:35;;;;;;;;;3.40;3.40;;;;;23.83;39.87;101312.50;5035507;28;45276;-49
2022/05/17 08:24:01;;;;;;;;;5.25;3.25;;;;;23.85;39.11;101317.81;5035490;28;45497;-49
2022/05/17 08:29:11;;;;;;;;;4.00;4.00;;;;;23.90;38.14;101314.97;5034902;28;45377;-49
2022/05/17 08:31:37;;;;;;;;;5.40;4.00;;;;;23.93;37.04;101314.41;5034032;28;45462;-48
2022/05/17 08:34:03;;;;;;;;;4.00;4.00;;;;;23.64;37.59;101267.47;5034725;28;45281;-56
2022/05/17 08:36:28;;;;;;;;;3.75;3.75;;;;;24.00;37.45;101313.25;5033605;28;47709;-52
2022/05/17 08:38:54;;;;;;;;;4.75;3.50;;;;;24.07;36.82;101309.03;5034224;28;45799;-50
2022/05/17 08:41:39;;;;;;;;;5.00;4.00;;;;;24.12;37.46;101310.94;5033551;28;45854;-50
2022/05/17 08:44:14;;;;;;;;;4.00;4.00;;;;;24.11;37.36;101297.25;5034370;28;45421;-54
2022/05/17 08:46:48;;;;;;;;;8.20;4.00;;;;;24.14;35.87;101308.72;5016959;28;47900;-56
2022/05/17 08:49:23;;;;;;;;;6.00;5.00;;;;;24.25;35.42;101303.00;5034850;28;45441;-52
2022/05/17 08:51:54;;;;;;;;;4.20;4.00;;;;;24.31;35.53;101301.84;5033751;28;45314;-60
2022/05/17 08:54:30;;;;;;;;;4.00;4.00;;;;;24.33;34.37;101296.81;5035058;28;45293;-52
2022/05/17 08:57:24;;;;;;;;;4.20;2.80;;;;;24.45;34.35;101305.66;5051473;28;46420;-53
2022/05/17 08:59:49;;;;;;;;;5.60;3.20;;;;;24.54;33.09;101302.25;5033291;28;45439;-51
2022/05/17 09:02:21;;;;;;;;;5.25;4.25;;;;;24.60;34.26;101292.66;5034316;28;45300;-51
2022/05/17 09:04:52;;;;;;;;;2.80;2.80;;;;;24.60;35.38;101284.25;5067294;28;45399;-50
2022/05/17 09:07:26;;;;;;;;;4.00;4.00;;;;;24.75;35.19;101292.50;5052071;28;46023;-51
2022/05/17 09:10:01;;;;;;;;;4.00;3.20;;;;;24.86;35.04;101300.88;5070334;28;45321;-54
2022/05/17 09:12:27;;;;;;;;;4.60;4.00;;;;;24.91;34.58;101300.78;5037860;28;45358;-51
2022/05/17 09:14:53;;;;;;;;;4.50;4.00;;;;;24.72;34.04;101262.25;5038482;28;45335;-53
2022/05/17 09:17:21;;;;;;;;;4.00;3.25;;;;;24.95;33.95;101298.22;5053234;28;45472;-51
2022/05/17 09:19:50;;;;;;;;;3.20;3.20;;;;;24.75;34.07;101263.59;5053094;28;45478;-49
2022/05/17 09:22:16;;;;;;;;;6.00;5.40;;;;;25.00;34.31;101299.03;5037973;28;45374;-51
2022/05/17 09:24:45;;;;;;;;;2.00;2.00;;;;;25.06;34.80;101294.19;5036913;28;45389;-53
2022/05/17 09:27:31;;;;;;;;;2.80;2.60;;;;;24.95;33.26;101259.78;5062195;27;45815;-49
2022/05/17 09:30:13;;;;;;;;;2.00;2.00;;;;;24.97;33.24;101262.28;5040311;28;45486;-50
2022/05/17 09:32:44;;;;;;;;;5.60;3.80;;;;;25.19;33.31;101284.22;5013275;28;46054;-56
2022/05/17 09:35:16;;;;;;;;;2.00;2.00;;;;;25.17;32.62;101278.06;5045186;28;45471;-54
2022/05/17 09:37:44;;;;;;;;;4.00;2.20;;;;;25.11;34.08;101256.78;5026314;28;46475;-52
2022/05/17 09:40:12;;;;;;;;;4.40;4.00;;;;;25.29;33.83;101284.09;5032877;28;45847;-53
2022/05/17 09:43:02;;;;;;;;;3.00;3.00;;;;;25.30;33.46;101285.75;5033139;28;45451;-50
2022/05/17 09:46:05;;;;;;;;;4.00;3.00;;;;;25.17;32.72;101256.44;5033719;28;45865;-56
2022/05/17 09:54:31;;;;;;;;;1.00;1.00;;;;;25.39;32.64;101279.50;5056262;27;45846;-50
2022/05/17 09:57:15;;;;;;;;;1.00;1.00;;;;;25.30;31.64;101257.66;5031632;28;45490;-55
2022/05/17 09:59:41;;;;;;;;;4.20;3.40;;;;;25.29;31.10;101253.19;5021226;28;45857;-55
2022/05/17 10:02:29;;;;;;;;;7.80;3.20;;;;;25.55;30.62;101280.16;5021566;28;45586;-55
2022/05/17 10:04:57;;;;;;;;;1.60;1.00;;;;;25.60;31.04;101282.91;5030850;28;45510;-49
2022/05/17 10:07:26;;;;;;;;;2.60;2.60;;;;;25.64;31.31;101285.94;5031641;28;45614;-54
2022/05/17 10:09:51;;;;;;;;;3.60;3.20;;;;;25.68;31.43;101270.16;5045923;28;45856;-52
2022/05/17 10:12:29;;;;;;;;;3.25;1.50;;;;;25.71;31.51;101269.53;5029922;28;45881;-53
2022/05/17 10:15:02;;;;;;;;;1.00;1.00;;;;;25.77;30.97;101271.13;5061965;27;45956;-56
2022/05/17 10:17:37;;;;;;;;;0.40;0.40;;;;;25.88;31.09;101271.81;5029378;28;45823;-57
2022/05/17 10:20:02;;;;;;;;;1.80;1.00;;;;;25.87;31.21;101253.28;5046862;28;46713;-53
2022/05/17 10:22:42;;;;;;;;;3.75;2.75;;;;;25.79;31.06;101234.31;5030326;28;45434;-54
2022/05/17 10:25:33;;;;;;;;;0.80;0.80;;;;;25.97;31.03;101267.19;5063856;28;45406;-54
2022/05/17 10:28:30;;;;;;;;;4.20;3.00;;;;;26.02;30.90;101259.81;5044056;28;45528;-53
2022/05/17 10:31:14;;;;;;;;;2.00;1.00;;;;;26.11;30.50;101249.56;5019148;28;46201;-55
2022/05/17 10:33:44;;;;;;;;;3.20;2.00;;;;;25.96;31.21;101219.69;5031705;28;45802;-55
2022/05/17 10:36:25;;;;;;;;;2.80;1.80;;;;;26.16;31.77;101237.38;5028671;28;46535;-51
2022/05/17 10:39:29;;;;;;;;;1.60;1.40;;;;;26.07;30.73;101211.94;5041849;28;45905;-57
2022/05/17 10:41:55;;;;;;;;;1.80;1.80;;;;;26.34;31.18;101239.38;5058318;28;46953;-49
2022/05/17 10:44:21;;;;;;;;;2.00;2.00;;;;;26.37;31.16;101238.72;5030800;28;45501;-52
2022/05/17 10:46:49;;;;;;;;;1.25;1.25;;;;;26.46;31.17;101221.16;5046467;28;45517;-55
2022/05/17 10:49:33;;;;;;;;;2.40;2.40;;;;;26.43;31.48;101222.63;5047661;28;45437;-52
2022/05/17 10:52:22;;;;;;;;;1.80;1.80;;;;;26.52;31.40;101214.31;5063083;27;45822;-52
2022/05/17 10:55:08;;;;;;;;;1.60;1.60;;;;;26.34;31.44;101171.00;5010137;28;45999;-53
2022/05/17 10:57:59;;;;;;;;;2.60;2.60;;;;;26.57;31.25;101196.47;5035503;28;45505;-54
2022/05/17 11:00:37;;;;;;;;;3.00;3.00;;;;;26.64;31.41;101206.16;5031205;28;45509;-55
2022/05/17 11:03:30;;;;;;;;;1.20;1.20;;;;;26.74;30.67;101212.75;5009516;28;46666;-57
2022/05/17 11:06:19;;;;;;;;;2.00;2.00;;;;;26.83;31.22;101204.44;5012098;28;45536;-49
2022/05/17 11:09:11;;;;;;;;;1.60;1.60;;;;;26.98;31.99;101206.97;5011286;28;45497;-48
2022/05/17 11:12:08;;;;;;;;;2.00;2.00;;;;;27.10;31.49;101214.88;5009816;28;45377;-50
2022/05/17 11:14:44;;;;;;;;;2.60;2.00;;;;;27.20;31.22;101211.84;5013023;28;45940;-53
2022/05/17 11:17:54;;;;;;;;;3.60;2.20;;;;;27.25;31.68;101196.81;5063943;28;45461;-49
2022/05/17 11:20:32;;;;;;;;;1.80;1.80;;;;;27.34;31.60;101196.91;4980497;28;45545;-53
2022/05/17 11:22:58;;;;;;;;;4.00;4.00;;;;;27.46;31.54;101197.22;5026014;28;45449;-54
2022/05/17 11:25:53;;;;;;;;;3.00;3.00;;;;;27.54;31.98;101197.59;5031435;28;46091;-56
2022/05/17 11:28:59;;;;;;;;;4.00;3.00;;;;;27.64;31.82;101179.66;5057756;27;45485;-55
2022/05/17 11:31:53;;;;;;;;;2.20;2.00;;;;;27.76;31.33;101185.56;5007557;28;45703;-52
2022/05/17 11:34:33;;;;;;;;;2.60;2.00;;;;;27.65;31.27;101155.94;5031704;28;45514;-52
2022/05/17 11:37:05;;;;;;;;;3.80;3.80;;;;;27.63;31.30;101139.34;5030018;28;46062;-58
2022/05/17 11:39:31;;;;;;;;;9.60;6.60;;;;;27.38;31.81;101106.94;5028781;28;45342;-58
2022/05/17 11:42:06;;;;;;;;;61.00;39.50;;;;;27.71;32.34;101178.06;5032092;28;45844;-54
2022/05/17 11:44:46;;;;;;;;;25.40;18.00;;;;;27.78;31.90;101173.94;5028478;28;45774;-55
2022/05/17 11:47:32;;;;;;;;;6.00;5.00;;;;;27.86;32.30;101168.38;5044970;28;45530;-57